Adams, Minnesota
Current Conditions -  °F | °C
As of 9:16 AM on Sunday 21 Dec 2014 (Local Time) from KAUM Reporting Station
Haze Haze  
Wind Chill: -4°   Ceiling: 100
Heat Index:   Visibility: 1.2mi
Dew Point:   Wind: 13mph
Humidity: 100%   Direction: 180°S
Pressure: 29.9"   Gusts: 18mph
Location:  43.57°N, 92.72°W
Report Text: KAUM 211516Z AUTO 18011G16KT 1 1/4SM BR OVC001 01/01 A2990 RMK AO2
Loading
Personal Weather Stations






























Interactive Weather Map New forecast layout! Learn more

10-Day Weather Forecast

Advertisements
Track Severe Weather on mobile